Time;durP1;ratioP1;P1;durP2;ratioP2;P2;SDS_P1;SDS_P2;PMS_P1;PMS_P2;Temp;Humidity;BMP_temperature;BMP_pressure;BME280_temperature;BME280_humidity;BME280_pressure;Samples;Min_cycle;Max_cycle;Signal;HPM_P1;HPM_P2
2023/12/13 00:01:25;;;;;;;30.07;13.27;;;6.10;58.90;;;;;;5092963;28;20425;-52
2023/12/13 00:03:51;;;;;;;27.20;14.50;;;6.10;73.50;;;;;;5094720;28;20180;-52
2023/12/13 00:06:17;;;;;;;23.33;13.70;;;6.10;85.40;;;;;;5094490;28;20844;-52
2023/12/13 00:08:43;;;;;;;22.20;12.67;;;6.10;95.30;;;;;;5094461;28;20466;-52
2023/12/13 00:11:09;;;;;;;26.40;14.10;;;6.00;97.40;;;;;;5093779;28;20292;-52
2023/12/13 00:13:35;;;;;;;29.30;14.47;;;6.10;99.90;;;;;;5093803;28;20510;-52
2023/12/13 00:16:01;;;;;;;25.50;12.50;;;6.10;98.40;;;;;;5094646;28;20392;-52
2023/12/13 00:18:28;;;;;;;23.43;12.60;;;6.00;91.10;;;;;;5094617;28;20231;-52
2023/12/13 00:20:53;;;;;;;25.10;13.20;;;6.10;99.90;;;;;;5094698;28;20461;-51
2023/12/13 00:23:19;;;;;;;24.90;14.90;;;6.00;99.90;;;;;;5093647;28;20815;-52
2023/12/13 00:25:44;;;;;;;29.67;14.03;;;6.00;99.90;;;;;;5093782;28;20178;-53
2023/12/13 00:28:10;;;;;;;26.87;13.93;;;6.00;99.90;;;;;;5094010;28;20176;-52
2023/12/13 00:30:35;;;;;;;28.13;14.43;;;6.00;99.90;;;;;;5094217;28;20261;-51
2023/12/13 00:33:01;;;;;;;34.43;14.70;;;6.00;99.90;;;;;;5094208;28;20185;-52
2023/12/13 00:35:26;;;;;;;30.40;14.43;;;6.00;99.90;;;;;;5093587;28;20218;-52
2023/12/13 00:37:52;;;;;;;28.07;13.90;;;6.00;99.90;;;;;;5093515;28;20181;-52
2023/12/13 00:40:18;;;;;;;26.87;13.93;;;6.00;99.90;;;;;;5094196;28;20182;-52
2023/12/13 00:42:44;;;;;;;26.93;14.43;;;6.00;99.90;;;;;;5093398;28;20582;-52
2023/12/13 00:45:10;;;;;;;30.70;15.10;;;6.00;99.90;;;;;;5094033;28;20463;-53
2023/12/13 00:47:35;;;;;;;26.37;14.70;;;6.00;99.90;;;;;;5093498;28;20182;-52
2023/12/13 00:50:01;;;;;;;29.17;14.70;;;5.90;99.90;;;;;;5093808;28;20258;-50
2023/12/13 00:52:27;;;;;;;29.40;14.37;;;6.00;99.90;;;;;;5093481;28;20185;-50
2023/12/13 00:54:52;;;;;;;26.60;14.70;;;6.00;99.90;;;;;;5092739;28;20191;-51
2023/12/13 00:57:18;;;;;;;30.80;13.00;;;6.00;99.90;;;;;;5093336;28;20184;-51
2023/12/13 00:59:43;;;;;;;25.80;14.00;;;6.00;99.90;;;;;;5093047;28;20177;-51
2023/12/13 01:02:09;;;;;;;26.87;13.70;;;5.90;99.90;;;;;;5093457;28;20173;-52
2023/12/13 01:04:36;;;;;;;24.40;13.03;;;5.90;99.90;;;;;;5093495;28;20192;-51
2023/12/13 01:07:02;;;;;;;24.93;13.70;;;5.90;99.90;;;;;;5093400;28;20242;-52
2023/12/13 01:09:28;;;;;;;23.97;13.60;;;5.90;99.90;;;;;;5093223;28;20465;-51
2023/12/13 01:11:53;;;;;;;22.80;12.33;;;5.90;99.90;;;;;;5093090;28;20267;-50
2023/12/13 01:14:19;;;;;;;22.00;11.70;;;5.90;99.90;;;;;;5092747;28;20514;-51
2023/12/13 01:16:44;;;;;;;21.70;11.73;;;5.90;99.90;;;;;;5093277;28;20184;-51
2023/12/13 01:19:10;;;;;;;21.87;11.50;;;5.90;99.90;;;;;;5092944;28;20185;-51
2023/12/13 01:21:36;;;;;;;25.00;11.10;;;5.90;99.90;;;;;;5093231;28;20229;-51
2023/12/13 01:24:02;;;;;;;20.37;10.63;;;5.90;99.90;;;;;;5092915;28;20199;-51
2023/12/13 01:26:28;;;;;;;18.93;10.50;;;5.90;99.90;;;;;;5092700;28;20213;-51
2023/12/13 01:28:54;;;;;;;21.50;10.80;;;5.90;99.90;;;;;;5092925;28;20857;-51
2023/12/13 01:31:19;;;;;;;17.67;10.60;;;5.90;99.90;;;;;;5093283;28;20224;-51
2023/12/13 01:33:45;;;;;;;18.90;10.03;;;5.80;99.90;;;;;;5092443;28;20177;-51
2023/12/13 01:36:10;;;;;;;16.23;8.57;;;5.80;99.90;;;;;;5093129;28;20208;-50
2023/12/13 01:38:36;;;;;;;16.83;8.80;;;5.80;99.90;;;;;;5092798;28;20341;-51
2023/12/13 01:41:02;;;;;;;15.50;9.17;;;5.80;99.90;;;;;;5092953;28;20185;-51
2023/12/13 01:43:29;;;;;;;19.13;9.90;;;5.80;99.90;;;;;;5092313;28;20542;-51
2023/12/13 01:45:56;;;;;;;16.30;8.40;;;5.80;99.90;;;;;;5092881;28;20412;-51
2023/12/13 01:48:25;;;;;;;13.57;7.73;;;5.80;99.90;;;;;;5092107;28;20412;-51
2023/12/13 01:50:52;;;;;;;14.70;8.20;;;5.80;99.90;;;;;;5092717;28;21025;-51
2023/12/13 01:53:18;;;;;;;13.80;8.10;;;5.70;99.90;;;;;;5092066;28;20507;-51
2023/12/13 01:55:44;;;;;;;13.40;7.40;;;5.70;99.90;;;;;;5092511;28;20415;-51
2023/12/13 01:58:11;;;;;;;15.50;8.17;;;5.70;99.90;;;;;;5092175;28;20462;-51
2023/12/13 02:00:38;;;;;;;12.80;8.20;;;5.70;99.90;;;;;;5092678;28;20429;-51
2023/12/13 02:03:04;;;;;;;11.57;7.50;;;5.70;99.90;;;;;;5092213;28;20418;-51
2023/12/13 02:05:31;;;;;;;15.17;7.27;;;5.70;99.90;;;;;;5091788;28;20466;-51
2023/12/13 02:07:57;;;;;;;15.37;7.60;;;5.70;99.90;;;;;;5092667;28;20411;-51
2023/12/13 02:10:23;;;;;;;13.83;7.10;;;5.60;99.90;;;;;;5092081;28;20461;-51
2023/12/13 02:12:50;;;;;;;11.00;6.70;;;5.70;99.90;;;;;;5092368;28;20181;-50
2023/12/13 02:15:16;;;;;;;10.20;6.90;;;5.60;99.90;;;;;;5091623;28;20194;-51
2023/12/13 02:17:53;;;;;;;9.50;6.23;;;5.60;99.90;;;;;;5091531;28;20414;-51
2023/12/13 02:20:20;;;;;;;13.23;6.67;;;5.50;99.90;;;;;;5092137;28;20255;-51
2023/12/13 02:22:45;;;;;;;9.30;6.00;;;5.50;99.90;;;;;;5091850;28;20446;-51
2023/12/13 02:25:19;;;;;;;11.00;6.97;;;5.50;99.90;;;;;;5092075;28;20439;-51
2023/12/13 02:27:45;;;;;;;8.70;6.20;;;5.50;99.90;;;;;;5091955;28;20173;-51
2023/12/13 02:30:11;;;;;;;9.40;5.63;;;5.50;99.90;;;;;;5091262;28;20463;-51
2023/12/13 02:32:37;;;;;;;9.90;6.30;;;5.60;99.90;;;;;;5091772;28;20419;-51
2023/12/13 02:35:03;;;;;;;9.90;5.60;;;5.50;99.90;;;;;;5091715;28;20188;-51
2023/12/13 02:37:29;;;;;;;8.77;5.50;;;5.50;99.90;;;;;;5092361;28;20596;-51
2023/12/13 02:39:56;;;;;;;9.50;5.47;;;5.50;99.90;;;;;;5091122;28;20513;-51
2023/12/13 02:42:22;;;;;;;8.70;5.70;;;5.50;99.90;;;;;;5091246;28;20562;-51
2023/12/13 02:44:47;;;;;;;10.80;6.03;;;5.50;99.90;;;;;;5091689;28;20418;-51
2023/12/13 02:47:13;;;;;;;10.50;6.53;;;5.50;99.90;;;;;;5092070;28;20511;-51
2023/12/13 02:49:39;;;;;;;8.27;5.87;;;5.50;99.90;;;;;;5092317;28;20743;-51
2023/12/13 02:52:05;;;;;;;8.03;5.83;;;5.50;99.90;;;;;;5091265;28;20184;-51
2023/12/13 02:54:30;;;;;;;9.50;6.00;;;5.50;99.90;;;;;;5090979;28;20195;-51
2023/12/13 02:56:56;;;;;;;9.20;5.60;;;5.40;99.90;;;;;;5091376;28;20426;-51
2023/12/13 02:59:21;;;;;;;8.60;5.83;;;5.40;99.90;;;;;;5091833;28;20288;-51
2023/12/13 03:01:47;;;;;;;9.97;5.80;;;5.50;99.90;;;;;;5091835;28;20184;-51
2023/12/13 03:04:13;;;;;;;9.13;5.73;;;5.40;99.90;;;;;;5091032;28;20274;-51
2023/12/13 03:06:38;;;;;;;9.90;5.93;;;5.40;99.90;;;;;;5091565;28;20229;-51
2023/12/13 03:09:04;;;;;;;8.20;5.10;;;5.50;99.90;;;;;;5091433;28;20299;-51
2023/12/13 03:11:30;;;;;;;7.10;5.10;;;5.40;99.90;;;;;;5092013;28;20634;-51
2023/12/13 03:13:56;;;;;;;8.67;5.63;;;5.40;99.90;;;;;;5091796;28;20610;-52
2023/12/13 03:16:21;;;;;;;10.77;5.97;;;5.40;99.90;;;;;;5091778;28;20419;-52
2023/12/13 03:18:47;;;;;;;8.90;6.20;;;5.40;99.90;;;;;;5093030;28;20181;-53
2023/12/13 03:21:13;;;;;;;9.60;5.60;;;5.30;99.90;;;;;;5095224;28;20227;-53
2023/12/13 03:23:38;;;;;;;10.93;6.30;;;5.30;99.90;;;;;;5095845;28;20270;-53
2023/12/13 03:26:04;;;;;;;8.67;5.33;;;5.30;99.90;;;;;;5095722;28;20185;-53
2023/12/13 03:28:30;;;;;;;8.73;5.77;;;5.30;99.90;;;;;;5095060;28;20738;-51
2023/12/13 03:30:55;;;;;;;8.17;5.43;;;5.30;99.90;;;;;;5094822;28;20191;-51
2023/12/13 03:33:21;;;;;;;8.67;6.10;;;5.30;99.90;;;;;;5094648;28;20341;-51
2023/12/13 03:35:46;;;;;;;7.77;5.10;;;5.30;99.90;;;;;;5095446;28;20213;-51
2023/12/13 03:38:12;;;;;;;10.10;6.17;;;5.30;99.90;;;;;;5095081;28;20184;-51
2023/12/13 03:40:37;;;;;;;8.70;5.70;;;5.30;99.90;;;;;;5094778;28;20654;-51
2023/12/13 03:43:03;;;;;;;8.10;5.03;;;5.30;99.90;;;;;;5095092;28;20188;-50
2023/12/13 03:45:29;;;;;;;9.20;5.60;;;5.30;99.90;;;;;;5094397;28;20185;-51
2023/12/13 03:47:54;;;;;;;11.53;6.30;;;5.40;99.90;;;;;;5094940;28;20271;-51
2023/12/13 03:50:20;;;;;;;8.10;5.40;;;5.40;99.90;;;;;;5094584;28;20200;-51
2023/12/13 03:52:45;;;;;;;10.00;5.80;;;5.30;99.90;;;;;;5095057;28;20196;-51
2023/12/13 03:55:12;;;;;;;10.17;5.90;;;5.30;99.90;;;;;;5094727;28;20183;-51
2023/12/13 03:57:38;;;;;;;8.33;5.70;;;5.30;99.90;;;;;;5094849;28;20185;-51
2023/12/13 04:00:04;;;;;;;8.90;5.90;;;5.30;99.90;;;;;;5094478;28;20420;-51
2023/12/13 04:02:30;;;;;;;9.90;6.30;;;5.30;99.90;;;;;;5094502;28;20536;-51
2023/12/13 04:04:55;;;;;;;9.40;5.63;;;5.30;99.90;;;;;;5094504;28;20500;-51
2023/12/13 04:07:21;;;;;;;10.57;5.97;;;5.30;99.90;;;;;;5094025;28;20271;-51
2023/12/13 04:09:46;;;;;;;7.93;5.87;;;5.30;99.90;;;;;;5093943;28;20211;-50
2023/12/13 04:12:12;;;;;;;9.93;6.20;;;5.30;99.90;;;;;;5094741;28;20184;-50
2023/12/13 04:14:38;;;;;;;10.43;6.37;;;5.30;99.90;;;;;;5094850;28;20229;-50
2023/12/13 04:17:04;;;;;;;8.40;5.93;;;5.30;99.90;;;;;;5094058;28;20173;-51
2023/12/13 04:19:29;;;;;;;9.33;6.10;;;5.30;99.90;;;;;;5093728;28;20274;-51
2023/12/13 04:21:55;;;;;;;10.70;6.70;;;5.30;99.90;;;;;;5094187;28;20418;-51
2023/12/13 04:24:20;;;;;;;7.80;5.63;;;5.20;99.90;;;;;;5094636;28;20649;-51
2023/12/13 04:26:46;;;;;;;8.40;5.50;;;5.20;99.90;;;;;;5094709;28;20626;-51
2023/12/13 04:29:11;;;;;;;11.47;6.10;;;5.20;99.90;;;;;;5093182;28;20926;-51
2023/12/13 04:31:39;;;;;;;9.87;6.30;;;5.20;99.90;;;;;;5094719;28;20175;-51
2023/12/13 04:34:04;;;;;;;9.10;5.87;;;5.20;99.90;;;;;;5093685;28;20175;-51
2023/12/13 04:36:30;;;;;;;9.67;5.87;;;5.20;99.90;;;;;;5094195;28;20425;-52
2023/12/13 04:38:56;;;;;;;8.67;6.00;;;5.20;99.90;;;;;;5093791;28;20185;-52
2023/12/13 04:41:22;;;;;;;9.60;5.80;;;5.30;99.90;;;;;;5094103;28;20563;-52
2023/12/13 04:43:48;;;;;;;9.00;5.70;;;5.20;99.90;;;;;;5093555;28;20263;-52
2023/12/13 04:46:13;;;;;;;8.17;5.53;;;5.20;99.90;;;;;;5093538;28;20949;-51
2023/12/13 04:48:39;;;;;;;8.00;5.53;;;5.10;99.90;;;;;;5094396;28;20211;-51
2023/12/13 04:51:05;;;;;;;7.40;5.40;;;5.20;99.90;;;;;;5092971;28;20187;-52
2023/12/13 04:53:31;;;;;;;9.87;6.33;;;5.20;99.90;;;;;;5093800;28;20478;-52
2023/12/13 04:55:56;;;;;;;8.13;6.10;;;5.20;99.90;;;;;;5093515;28;20182;-52
2023/12/13 04:58:22;;;;;;;8.77;6.10;;;5.20;99.90;;;;;;5092897;28;20183;-52
2023/12/13 05:00:48;;;;;;;11.50;6.53;;;5.20;99.90;;;;;;5093391;28;20213;-52
2023/12/13 05:03:14;;;;;;;7.40;5.53;;;5.30;99.90;;;;;;5093652;28;20177;-51
2023/12/13 05:05:40;;;;;;;10.07;6.17;;;5.20;99.90;;;;;;5093648;28;20885;-52
2023/12/13 05:08:11;;;;;;;8.93;6.10;;;5.30;99.90;;;;;;5093733;28;20173;-52
2023/12/13 05:10:40;;;;;;;9.40;6.27;;;5.20;99.90;;;;;;5093069;28;20208;-53
2023/12/13 05:13:06;;;;;;;10.77;6.30;;;5.20;99.90;;;;;;5093284;28;20426;-52
2023/12/13 05:15:32;;;;;;;9.77;5.90;;;5.20;99.90;;;;;;5092967;28;20420;-52
2023/12/13 05:17:58;;;;;;;8.50;6.37;;;5.20;99.90;;;;;;5093341;28;20422;-52
2023/12/13 05:20:23;;;;;;;10.30;6.23;;;5.20;99.90;;;;;;5093208;28;20665;-52
2023/12/13 05:22:49;;;;;;;9.60;6.93;;;5.20;99.90;;;;;;5092646;28;20200;-52
2023/12/13 05:25:14;;;;;;;11.23;7.87;;;5.20;99.90;;;;;;5092892;28;20196;-52
2023/12/13 05:27:42;;;;;;;12.13;7.40;;;5.20;99.90;;;;;;5093564;28;20170;-52
2023/12/13 05:30:08;;;;;;;11.63;7.10;;;5.20;99.90;;;;;;5093456;28;20562;-52
2023/12/13 05:32:34;;;;;;;11.50;7.27;;;5.20;99.90;;;;;;5092853;28;20426;-52
2023/12/13 05:34:59;;;;;;;9.83;7.03;;;5.20;99.90;;;;;;5092388;28;20426;-52
2023/12/13 05:37:25;;;;;;;12.80;7.27;;;5.20;99.90;;;;;;5093251;28;20512;-53
2023/12/13 05:39:50;;;;;;;13.13;7.03;;;5.20;99.90;;;;;;5092482;28;20180;-52
2023/12/13 05:42:16;;;;;;;18.97;8.93;;;5.20;99.90;;;;;;5091944;28;20175;-52
2023/12/13 05:44:41;;;;;;;11.53;7.90;;;5.30;99.90;;;;;;5093181;28;20533;-52
2023/12/13 05:47:07;;;;;;;10.83;7.37;;;5.30;99.90;;;;;;5092655;28;20256;-52
2023/12/13 05:49:32;;;;;;;12.37;8.17;;;5.30;99.90;;;;;;5092273;28;20203;-52
2023/12/13 05:51:58;;;;;;;12.13;7.70;;;5.30;99.90;;;;;;5092534;28;20179;-52
2023/12/13 05:54:23;;;;;;;15.27;8.30;;;5.20;99.90;;;;;;5092121;28;20178;-52
2023/12/13 05:56:49;;;;;;;10.60;7.40;;;5.20;99.90;;;;;;5092837;28;20188;-52
2023/12/13 05:59:15;;;;;;;13.77;8.20;;;5.20;99.90;;;;;;5091915;28;20645;-52
2023/12/13 06:01:41;;;;;;;11.90;8.40;;;5.30;99.90;;;;;;5092282;28;20199;-52
2023/12/13 06:04:06;;;;;;;13.33;8.17;;;5.20;99.90;;;;;;5092270;28;20412;-52
2023/12/13 06:06:32;;;;;;;15.33;9.23;;;5.20;99.90;;;;;;5092470;28;20234;-52
2023/12/13 06:08:58;;;;;;;13.80;8.83;;;5.20;99.90;;;;;;5092448;28;20233;-52
2023/12/13 06:11:24;;;;;;;14.67;8.47;;;5.20;99.90;;;;;;5092449;28;20184;-51
2023/12/13 06:13:49;;;;;;;16.90;8.57;;;5.20;99.90;;;;;;5091592;28;20228;-52
2023/12/13 06:16:15;;;;;;;18.00;9.30;;;5.20;99.90;;;;;;5091928;28;20417;-52
2023/12/13 06:18:40;;;;;;;15.50;9.10;;;5.20;99.90;;;;;;5092426;28;20184;-52
2023/12/13 06:21:07;;;;;;;13.17;8.60;;;5.20;99.90;;;;;;5092687;28;20191;-52
2023/12/13 06:23:33;;;;;;;16.97;9.60;;;5.20;99.90;;;;;;5091309;28;20194;-52
2023/12/13 06:25:58;;;;;;;16.10;9.73;;;5.20;99.90;;;;;;5091717;28;20419;-52
2023/12/13 06:28:24;;;;;;;15.10;9.20;;;5.20;99.90;;;;;;5092232;28;20430;-52
2023/12/13 06:30:49;;;;;;;17.87;9.90;;;5.20;99.90;;;;;;5092122;28;20651;-52
2023/12/13 06:33:18;;;;;;;17.40;9.77;;;5.20;99.90;;;;;;5091857;28;20705;-52
2023/12/13 06:35:44;;;;;;;15.60;9.23;;;5.20;99.90;;;;;;5092043;28;20188;-53
2023/12/13 06:38:09;;;;;;;17.90;9.77;;;5.20;99.90;;;;;;5092399;28;20500;-52
2023/12/13 06:40:35;;;;;;;18.50;9.67;;;5.20;99.90;;;;;;5092057;28;20555;-53
2023/12/13 06:43:00;;;;;;;15.13;9.53;;;5.20;99.90;;;;;;5091768;28;20536;-52
2023/12/13 06:45:26;;;;;;;18.63;9.07;;;5.20;99.90;;;;;;5091736;28;20596;-53
2023/12/13 06:47:51;;;;;;;24.60;9.80;;;5.10;99.90;;;;;;5091657;28;20183;-52
2023/12/13 06:50:17;;;;;;;17.00;9.83;;;5.10;99.90;;;;;;5091117;28;20201;-52
2023/12/13 06:52:44;;;;;;;18.10;10.27;;;5.10;99.90;;;;;;5092722;28;20181;-52
2023/12/13 06:55:10;;;;;;;20.83;10.33;;;5.10;99.90;;;;;;5096475;28;20211;-52
2023/12/13 06:57:35;;;;;;;16.20;9.90;;;5.10;99.90;;;;;;5095958;28;20424;-52
2023/12/13 07:00:02;;;;;;;16.37;9.70;;;5.10;99.90;;;;;;5095534;28;21049;-51
2023/12/13 07:02:27;;;;;;;27.73;11.30;;;5.10;99.90;;;;;;5095339;28;20261;-51
2023/12/13 07:04:53;;;;;;;18.50;8.93;;;5.10;99.90;;;;;;5095443;28;20453;-51
2023/12/13 07:07:18;;;;;;;16.40;10.30;;;5.10;99.90;;;;;;5095882;28;20233;-52
2023/12/13 07:09:45;;;;;;;19.20;9.17;;;5.10;99.90;;;;;;5095682;28;20201;-52
2023/12/13 07:12:11;;;;;;;16.97;10.00;;;5.10;99.90;;;;;;5095118;28;20180;-52
2023/12/13 07:14:36;;;;;;;17.20;9.43;;;5.10;99.90;;;;;;5095794;28;20778;-52
2023/12/13 07:17:03;;;;;;;17.97;9.50;;;5.10;99.90;;;;;;5095027;28;20199;-52
2023/12/13 07:19:29;;;;;;;16.80;9.00;;;5.10;99.90;;;;;;5095763;28;20189;-51
2023/12/13 07:21:55;;;;;;;18.03;9.30;;;5.10;99.90;;;;;;5095671;28;20430;-52
2023/12/13 07:24:20;;;;;;;16.63;9.23;;;5.10;99.90;;;;;;5094827;28;20179;-51
2023/12/13 07:26:46;;;;;;;15.27;9.07;;;5.10;99.90;;;;;;5094443;28;20170;-52
2023/12/13 07:29:12;;;;;;;16.53;8.83;;;5.10;99.90;;;;;;5095089;28;20221;-51
2023/12/13 07:31:41;;;;;;;19.37;9.10;;;5.10;99.90;;;;;;5094672;28;20421;-52
2023/12/13 07:34:08;;;;;;;18.20;9.20;;;5.00;99.90;;;;;;5095222;28;20190;-51
2023/12/13 07:36:34;;;;;;;25.27;9.50;;;5.00;99.90;;;;;;5095077;28;20422;-52
2023/12/13 07:39:00;;;;;;;19.90;9.97;;;5.10;99.90;;;;;;5095245;28;20411;-52
2023/12/13 07:41:26;;;;;;;17.50;8.40;;;5.10;99.90;;;;;;5095229;28;20908;-52
2023/12/13 07:43:52;;;;;;;15.33;8.90;;;5.10;99.90;;;;;;5095312;28;20603;-51
2023/12/13 07:46:17;;;;;;;15.83;8.90;;;5.00;99.90;;;;;;5095050;28;20183;-52
2023/12/13 07:48:43;;;;;;;17.63;9.30;;;5.10;99.90;;;;;;5094471;28;20464;-52
2023/12/13 07:51:10;;;;;;;16.80;8.43;;;5.10;99.90;;;;;;5095431;28;20184;-52
2023/12/13 07:53:35;;;;;;;14.73;8.93;;;5.00;99.90;;;;;;5095143;28;20643;-52
2023/12/13 07:56:01;;;;;;;11.20;7.53;;;5.00;99.90;;;;;;5095076;28;20508;-52
2023/12/13 07:58:26;;;;;;;20.60;10.10;;;5.10;99.90;;;;;;5094525;28;20187;-52
2023/12/13 08:00:52;;;;;;;15.80;8.50;;;5.10;99.90;;;;;;5094132;28;20536;-52
2023/12/13 08:03:18;;;;;;;16.17;8.60;;;5.10;99.90;;;;;;5094360;28;20632;-52
2023/12/13 08:05:43;;;;;;;13.53;8.13;;;5.10;99.90;;;;;;5094252;28;20333;-52
2023/12/13 08:08:09;;;;;;;20.70;9.13;;;5.10;99.90;;;;;;5095006;28;20184;-52
2023/12/13 08:10:35;;;;;;;16.43;8.93;;;5.10;99.90;;;;;;5093940;28;20217;-52
2023/12/13 08:13:00;;;;;;;16.83;8.93;;;5.00;99.90;;;;;;5094658;28;20420;-52
2023/12/13 08:15:26;;;;;;;13.03;8.20;;;5.00;99.90;;;;;;5094597;28;20630;-52
2023/12/13 08:17:52;;;;;;;15.10;8.80;;;5.00;99.90;;;;;;5094499;28;20184;-52
2023/12/13 08:20:17;;;;;;;12.23;7.40;;;5.00;99.90;;;;;;5093785;28;20776;-52
2023/12/13 08:22:43;;;;;;;16.20;8.80;;;5.00;99.90;;;;;;5094238;28;20181;-52
2023/12/13 08:25:09;;;;;;;12.63;7.77;;;5.00;99.90;;;;;;5094981;28;20196;-52
2023/12/13 08:27:34;;;;;;;11.33;7.17;;;5.10;99.90;;;;;;5094181;28;20657;-52
2023/12/13 08:30:00;;;;;;;14.60;8.03;;;5.10;99.90;;;;;;5094083;28;20208;-52
2023/12/13 08:32:25;;;;;;;14.57;8.70;;;5.00;99.90;;;;;;5093791;28;20966;-52
2023/12/13 08:34:51;;;;;;;13.27;7.47;;;5.00;99.90;;;;;;5094004;28;20690;-52
2023/12/13 08:37:17;;;;;;;12.50;7.90;;;5.10;99.90;;;;;;5093411;28;20214;-52
2023/12/13 08:39:42;;;;;;;12.03;7.10;;;5.10;99.90;;;;;;5094441;28;20646;-52
2023/12/13 08:42:09;;;;;;;13.47;8.23;;;5.10;99.90;;;;;;5094504;28;20223;-53
2023/12/13 08:44:34;;;;;;;11.47;7.33;;;5.20;99.90;;;;;;5093052;28;20653;-52
2023/12/13 08:47:00;;;;;;;13.17;7.50;;;5.10;99.90;;;;;;5093541;28;20517;-52
2023/12/13 08:49:26;;;;;;;11.97;7.30;;;5.10;99.90;;;;;;5093611;28;20220;-52
2023/12/13 08:51:51;;;;;;;15.87;8.63;;;5.10;99.90;;;;;;5093253;28;20432;-52
2023/12/13 08:54:17;;;;;;;14.43;8.40;;;5.10;99.90;;;;;;5093535;28;20183;-52
2023/12/13 08:56:43;;;;;;;13.17;8.57;;;5.10;99.90;;;;;;5093426;28;20536;-51
2023/12/13 08:59:08;;;;;;;14.37;8.20;;;5.10;99.90;;;;;;5093858;28;20647;-51
2023/12/13 09:01:34;;;;;;;10.73;7.47;;;5.20;99.90;;;;;;5093205;28;20181;-51
2023/12/13 09:03:59;;;;;;;13.50;8.73;;;5.10;99.90;;;;;;5093294;28;20184;-51
2023/12/13 09:06:25;;;;;;;11.23;8.13;;;5.10;99.90;;;;;;5093187;28;20322;-51
2023/12/13 09:08:51;;;;;;;13.80;8.77;;;5.10;99.90;;;;;;5093685;28;20181;-51
2023/12/13 09:11:16;;;;;;;13.63;8.40;;;5.10;99.90;;;;;;5093181;28;20429;-51
2023/12/13 09:13:42;;;;;;;14.10;8.27;;;5.10;99.90;;;;;;5093273;28;20221;-51
2023/12/13 09:16:08;;;;;;;14.63;8.47;;;5.10;99.90;;;;;;5091698;28;20211;-51
2023/12/13 09:18:33;;;;;;;13.37;8.60;;;5.10;99.90;;;;;;5092665;28;20219;-51
2023/12/13 09:20:59;;;;;;;13.70;8.50;;;5.10;99.90;;;;;;5093152;28;20188;-52
2023/12/13 09:23:25;;;;;;;15.70;9.00;;;5.10;99.90;;;;;;5093150;28;20185;-51
2023/12/13 09:25:52;;;;;;;13.23;8.03;;;5.20;99.90;;;;;;5093156;28;20683;-52
2023/12/13 09:28:18;;;;;;;13.60;7.80;;;5.20;99.90;;;;;;5093144;28;20756;-52
2023/12/13 09:30:44;;;;;;;18.57;9.20;;;5.10;99.90;;;;;;5092738;28;20458;-53
2023/12/13 09:33:11;;;;;;;17.90;8.97;;;5.20;99.90;;;;;;5092979;28;20413;-52
2023/12/13 09:35:37;;;;;;;12.00;8.00;;;5.20;99.90;;;;;;5092964;28;20184;-52
2023/12/13 09:38:04;;;;;;;14.77;8.27;;;5.10;99.90;;;;;;5092654;28;20919;-52
2023/12/13 09:40:30;;;;;;;12.50;8.07;;;5.20;99.90;;;;;;5092797;28;20411;-52
2023/12/13 09:42:56;;;;;;;12.30;7.53;;;5.20;99.90;;;;;;5092795;28;20417;-52
2023/12/13 09:45:22;;;;;;;15.93;8.30;;;5.20;99.90;;;;;;5092678;28;20420;-52
2023/12/13 09:47:49;;;;;;;15.23;7.77;;;5.10;99.90;;;;;;5092839;28;20169;-52
2023/12/13 09:50:18;;;;;;;15.57;7.80;;;5.20;99.90;;;;;;5093138;28;20543;-52
2023/12/13 09:52:44;;;;;;;15.03;8.50;;;5.10;99.90;;;;;;5092922;28;20497;-52
2023/12/13 09:55:11;;;;;;;12.73;7.90;;;5.10;99.90;;;;;;5092893;28;20872;-52
2023/12/13 09:57:37;;;;;;;13.60;8.13;;;5.20;99.90;;;;;;5092526;28;20181;-52
2023/12/13 10:00:05;;;;;;;13.70;8.57;;;5.20;99.90;;;;;;5092479;28;20796;-52
2023/12/13 10:02:31;;;;;;;17.73;8.30;;;5.20;99.90;;;;;;5092158;28;20426;-52
2023/12/13 10:04:59;;;;;;;12.03;7.87;;;5.20;99.90;;;;;;5092033;28;20509;-52
2023/12/13 10:07:27;;;;;;;14.00;7.77;;;5.20;99.90;;;;;;5092798;28;20284;-52
2023/12/13 10:09:55;;;;;;;14.53;8.17;;;5.10;99.90;;;;;;5092055;28;20475;-52
2023/12/13 10:12:21;;;;;;;21.77;8.77;;;5.10;99.90;;;;;;5091904;28;20477;-52
2023/12/13 10:14:47;;;;;;;13.57;8.00;;;5.20;99.90;;;;;;5092224;28;20423;-52
2023/12/13 10:17:12;;;;;;;13.57;9.03;;;5.20;99.90;;;;;;5092654;28;20412;-52
2023/12/13 10:19:38;;;;;;;16.60;8.43;;;5.20;99.90;;;;;;5092818;28;20192;-52
2023/12/13 10:22:05;;;;;;;13.00;7.80;;;5.20;99.90;;;;;;5092508;28;20215;-52
2023/12/13 10:24:31;;;;;;;11.90;7.40;;;5.20;99.90;;;;;;5090726;28;20685;-52
2023/12/13 10:26:57;;;;;;;12.13;7.63;;;5.20;96.10;;;;;;5092101;28;20447;-52
2023/12/13 10:29:23;;;;;;;13.90;7.57;;;5.20;92.30;;;;;;5092317;28;20501;-52
2023/12/13 10:31:49;;;;;;;14.47;8.50;;;5.10;96.70;;;;;;5091931;28;20539;-53
2023/12/13 10:34:15;;;;;;;17.40;9.53;;;5.10;92.40;;;;;;5091947;28;20494;-52
2023/12/13 10:36:41;;;;;;;16.70;9.70;;;5.20;99.90;;;;;;5091830;28;20640;-52
2023/12/13 10:39:07;;;;;;;15.00;9.30;;;5.20;99.90;;;;;;5092109;28;20192;-52
2023/12/13 10:41:34;;;;;;;14.70;8.43;;;5.20;80.10;;;;;;5091934;28;20215;-52
2023/12/13 10:44:02;;;;;;;11.53;7.50;;;5.10;33.30;;;;;;5091853;28;20784;-52
2023/12/13 10:46:33;;;;;;;11.27;6.97;;;5.10;20.40;;;;;;5091816;28;20411;-52
2023/12/13 10:49:03;;;;;;;11.63;7.33;;;5.10;39.50;;;;;;5091396;28;20445;-52
2023/12/13 10:51:30;;;;;;;12.50;7.67;;;5.10;52.60;;;;;;5092216;28;20438;-52
2023/12/13 10:53:57;;;;;;;11.37;6.87;;;5.10;52.80;;;;;;5092139;28;20415;-51
2023/12/13 10:56:23;;;;;;;10.40;6.80;;;5.10;34.80;;;;;;5091990;28;20863;-51
2023/12/13 10:58:48;;;;;;;11.07;7.27;;;5.10;57.50;;;;;;5091637;28;20505;-52
2023/12/13 11:01:15;;;;;;;9.70;7.17;;;5.10;50.30;;;;;;5091256;28;20580;-52
2023/12/13 11:03:57;;;;;;;9.50;6.50;;;5.10;28.90;;;;;;5091536;28;20176;-51
2023/12/13 11:06:22;;;;;;;9.53;6.90;;;5.10;39.20;;;;;;5091066;28;20978;-51
2023/12/13 11:08:48;;;;;;;13.90;8.00;;;5.10;52.10;;;;;;5091732;28;20432;-51
2023/12/13 11:11:16;;;;;;;10.53;6.03;;;5.10;44.70;;;;;;5091523;28;20191;-51
2023/12/13 11:13:53;;;;;;;11.83;8.60;;;5.10;22.50;;;;;;5091200;28;20191;-51
2023/12/13 11:16:20;;;;;;;10.20;7.03;;;5.10;8.80;;;;;;5091559;28;20408;-51
2023/12/13 11:18:46;;;;;;;11.60;6.90;;;5.10;23.50;;;;;;5092000;28;20478;-51
2023/12/13 11:21:28;;;;;;;11.37;6.90;;;5.10;20.10;;;;;;5090927;28;20932;-51
2023/12/13 11:23:54;;;;;;;7.13;5.93;;;5.10;1.50;;;;;;5091052;28;20421;-51
2023/12/13 11:26:24;;;;;;;9.17;5.93;;;5.00;10.10;;;;;;5091470;28;20940;-51
2023/12/13 11:28:50;;;;;;;9.33;6.53;;;5.10;3.40;;;;;;5091097;28;20916;-52
2023/12/13 11:31:26;;;;;;;10.00;6.13;;;5.10;7.50;;;;;;5091628;28;20433;-52
2023/12/13 11:33:56;;;;;;;14.07;8.77;;;5.10;1.00;;;;;;5091675;28;20407;-52
2023/12/13 11:36:23;;;;;;;10.97;5.80;;;5.10;1.00;;;;;;5090876;28;20501;-52
2023/12/13 11:38:54;;;;;;;15.87;6.63;;;5.00;1.00;;;;;;5091559;28;20409;-52
2023/12/13 11:41:20;;;;;;;11.47;7.47;;;5.00;1.00;;;;;;5095514;28;20405;-52
2023/12/13 11:43:46;;;;;;;12.60;7.00;;;5.10;1.00;;;;;;5095503;28;20521;-53
2023/12/13 11:46:13;;;;;;;10.20;5.57;;;5.10;1.00;;;;;;5094457;28;20533;-53
2023/12/13 11:48:39;;;;;;;10.67;5.97;;;5.10;1.00;;;;;;5095062;28;20499;-52
2023/12/13 11:51:05;;;;;;;6.63;5.13;;;5.10;1.00;;;;;;5094571;28;20554;-53
2023/12/13 11:53:32;;;;;;;9.50;5.67;;;5.10;1.00;;;;;;5095155;28;20597;-52
2023/12/13 11:55:57;;;;;;;9.93;5.40;;;5.10;1.00;;;;;;5095266;28;20753;-52
2023/12/13 11:58:27;;;;;;;9.30;6.50;;;5.10;1.00;;;;;;5094713;28;20406;-51
2023/12/13 12:00:53;;;;;;;7.57;5.03;;;5.10;1.00;;;;;;5094414;28;20961;-52
2023/12/13 12:03:19;;;;;;;7.77;5.20;;;5.10;1.00;;;;;;5094926;28;20415;-52
2023/12/13 12:05:44;;;;;;;7.40;5.10;;;5.10;1.00;;;;;;5093853;28;20262;-51
2023/12/13 12:08:11;;;;;;;8.20;5.43;;;5.20;1.00;;;;;;5095152;28;20657;-53
2023/12/13 12:10:37;;;;;;;8.40;4.50;;;5.20;1.00;;;;;;5094285;28;20655;-52
2023/12/13 12:13:03;;;;;;;9.43;5.27;;;5.10;1.00;;;;;;5093826;28;20503;-52
2023/12/13 12:15:31;;;;;;;6.93;4.93;;;5.20;1.00;;;;;;5094557;28;20177;-52
2023/12/13 12:17:57;;;;;;;7.70;4.40;;;5.20;1.00;;;;;;5094518;28;20188;-52
2023/12/13 12:20:24;;;;;;;6.53;5.23;;;5.30;1.00;;;;;;5094409;28;20421;-52
2023/12/13 12:22:50;;;;;;;11.60;5.00;;;5.30;1.00;;;;;;5093914;28;20477;-51
2023/12/13 12:25:17;;;;;;;7.10;4.87;;;5.20;1.00;;;;;;5094569;28;20415;-52
2023/12/13 12:27:49;;;;;;;7.90;4.50;;;5.20;1.00;;;;;;5093866;28;20264;-51
2023/12/13 12:30:17;;;;;;;14.53;5.00;;;5.30;1.00;;;;;;5093706;28;20458;-52
2023/12/13 12:32:43;;;;;;;7.13;4.30;;;5.30;1.00;;;;;;5093736;28;20432;-52
2023/12/13 12:35:08;;;;;;;6.40;4.60;;;5.30;1.00;;;;;;5094441;28;20413;-52
2023/12/13 12:37:34;;;;;;;6.17;4.60;;;5.30;1.00;;;;;;5094239;28;20969;-52
2023/12/13 12:40:00;;;;;;;12.00;5.00;;;5.30;1.00;;;;;;5093178;28;20184;-52
2023/12/13 12:42:26;;;;;;;5.30;3.60;;;5.30;1.00;;;;;;5094115;28;20173;-51
2023/12/13 12:44:52;;;;;;;6.00;4.50;;;5.30;1.00;;;;;;5093606;28;20181;-51